sensor_id;sensor_type;location;lat;lon;timestamp;pressure;altitude;pressure_sealevel;temperature;humidity
27334;BME280;14817;57.104;-2.094;2022-09-17T00:01:05;101195.78;;;7.96;75.67
27334;BME280;14817;57.104;-2.094;2022-09-17T00:03:33;101206.09;;;7.90;75.30
27334;BME280;14817;57.104;-2.094;2022-09-17T00:06:06;101201.84;;;7.98;75.88
27334;BME280;14817;57.104;-2.094;2022-09-17T00:08:35;101202.69;;;7.99;76.17
27334;BME280;14817;57.104;-2.094;2022-09-17T00:13:33;101200.97;;;7.87;77.46
27334;BME280;14817;57.104;-2.094;2022-09-17T00:16:00;101197.47;;;7.86;77.17
27334;BME280;14817;57.104;-2.094;2022-09-17T00:18:27;101201.13;;;7.85;77.70
27334;BME280;14817;57.104;-2.094;2022-09-17T00:20:54;101197.09;;;7.91;78.33
27334;BME280;14817;57.104;-2.094;2022-09-17T00:23:20;101193.59;;;7.90;78.17
27334;BME280;14817;57.104;-2.094;2022-09-17T00:25:47;101193.97;;;7.97;78.23
27334;BME280;14817;57.104;-2.094;2022-09-17T00:28:14;101197.47;;;7.86;79.15
27334;BME280;14817;57.104;-2.094;2022-09-17T00:30:43;101192.41;;;7.94;78.48
27334;BME280;14817;57.104;-2.094;2022-09-17T00:33:12;101189.47;;;7.86;79.06
27334;BME280;14817;57.104;-2.094;2022-09-17T00:35:39;101180.50;;;7.87;79.77
27334;BME280;14817;57.104;-2.094;2022-09-17T00:38:06;101191.88;;;7.78;80.34
27334;BME280;14817;57.104;-2.094;2022-09-17T00:40:33;101179.63;;;7.87;79.56
27334;BME280;14817;57.104;-2.094;2022-09-17T00:43:00;101177.59;;;7.79;80.30
27334;BME280;14817;57.104;-2.094;2022-09-17T00:45:27;101176.72;;;7.78;80.47
27334;BME280;14817;57.104;-2.094;2022-09-17T00:47:59;101174.41;;;7.74;80.81
27334;BME280;14817;57.104;-2.094;2022-09-17T00:50:40;101178.28;;;7.70;80.89
27334;BME280;14817;57.104;-2.094;2022-09-17T00:53:11;101176.59;;;7.69;80.01
27334;BME280;14817;57.104;-2.094;2022-09-17T00:55:49;101183.59;;;7.70;80.58
27334;BME280;14817;57.104;-2.094;2022-09-17T00:58:20;101183.38;;;7.73;79.94
27334;BME280;14817;57.104;-2.094;2022-09-17T01:00:48;101175.84;;;7.67;80.30
27334;BME280;14817;57.104;-2.094;2022-09-17T01:03:15;101180.19;;;7.68;79.41
27334;BME280;14817;57.104;-2.094;2022-09-17T01:06:04;101177.22;;;7.72;78.79
27334;BME280;14817;57.104;-2.094;2022-09-17T01:11:49;101172.94;;;7.70;77.48
27334;BME280;14817;57.104;-2.094;2022-09-17T01:29:12;101162.66;;;7.76;75.95
27334;BME280;14817;57.104;-2.094;2022-09-17T01:34:27;101166.28;;;7.75;76.19
27334;BME280;14817;57.104;-2.094;2022-09-17T01:37:15;101161.44;;;7.81;75.86
27334;BME280;14817;57.104;-2.094;2022-09-17T01:40:20;101146.66;;;7.76;76.24
27334;BME280;14817;57.104;-2.094;2022-09-17T01:45:36;101144.34;;;7.72;75.93
27334;BME280;14817;57.104;-2.094;2022-09-17T01:51:27;101138.78;;;7.75;75.03
27334;BME280;14817;57.104;-2.094;2022-09-17T01:53:33;101145.22;;;7.72;75.04
27334;BME280;14817;57.104;-2.094;2022-09-17T01:56:01;101141.22;;;7.78;75.44
27334;BME280;14817;57.104;-2.094;2022-09-17T01:58:32;101143.41;;;7.73;74.92
27334;BME280;14817;57.104;-2.094;2022-09-17T02:01:04;101138.16;;;7.71;75.62
27334;BME280;14817;57.104;-2.094;2022-09-17T02:03:42;101139.00;;;7.72;75.80
27334;BME280;14817;57.104;-2.094;2022-09-17T02:06:17;101138.53;;;7.67;75.51
27334;BME280;14817;57.104;-2.094;2022-09-17T02:08:52;101148.22;;;7.68;76.28
27334;BME280;14817;57.104;-2.094;2022-09-17T02:11:20;101137.56;;;7.68;75.99
27334;BME280;14817;57.104;-2.094;2022-09-17T02:14:07;101141.69;;;7.72;75.75
27334;BME280;14817;57.104;-2.094;2022-09-17T02:16:42;101146.06;;;7.73;76.12
27334;BME280;14817;57.104;-2.094;2022-09-17T02:19:22;101150.03;;;7.78;76.51
27334;BME280;14817;57.104;-2.094;2022-09-17T02:22:11;101145.53;;;7.68;76.23
27334;BME280;14817;57.104;-2.094;2022-09-17T02:24:42;101157.19;;;7.67;76.54
27334;BME280;14817;57.104;-2.094;2022-09-17T02:27:19;101144.81;;;7.66;76.40
27334;BME280;14817;57.104;-2.094;2022-09-17T02:29:48;101150.41;;;7.63;76.63
27334;BME280;14817;57.104;-2.094;2022-09-17T02:32:15;101150.88;;;7.68;77.02
27334;BME280;14817;57.104;-2.094;2022-09-17T02:34:42;101150.41;;;7.63;77.00
27334;BME280;14817;57.104;-2.094;2022-09-17T02:37:09;101150.75;;;7.58;77.30
27334;BME280;14817;57.104;-2.094;2022-09-17T02:39:36;101149.66;;;7.61;78.09
27334;BME280;14817;57.104;-2.094;2022-09-17T02:44:48;101162.00;;;7.62;77.37
27334;BME280;14817;57.104;-2.094;2022-09-17T02:47:33;101158.88;;;7.68;77.07
27334;BME280;14817;57.104;-2.094;2022-09-17T02:52:57;101157.75;;;7.59;77.83
27334;BME280;14817;57.104;-2.094;2022-09-17T02:55:44;101158.13;;;7.54;77.47
27334;BME280;14817;57.104;-2.094;2022-09-17T03:01:27;101159.69;;;7.57;78.05
27334;BME280;14817;57.104;-2.094;2022-09-17T03:03:58;101149.91;;;7.57;78.21
27334;BME280;14817;57.104;-2.094;2022-09-17T03:06:26;101150.03;;;7.56;78.04
27334;BME280;14817;57.104;-2.094;2022-09-17T03:08:53;101151.94;;;7.54;78.43
27334;BME280;14817;57.104;-2.094;2022-09-17T03:11:19;101151.13;;;7.53;78.16
27334;BME280;14817;57.104;-2.094;2022-09-17T03:13:47;101151.31;;;7.50;78.40
27334;BME280;14817;57.104;-2.094;2022-09-17T03:16:14;101146.72;;;7.52;79.04
27334;BME280;14817;57.104;-2.094;2022-09-17T03:18:40;101155.09;;;7.48;78.99
27334;BME280;14817;57.104;-2.094;2022-09-17T03:21:08;101143.13;;;7.53;78.56
27334;BME280;14817;57.104;-2.094;2022-09-17T03:23:35;101151.69;;;7.57;78.93
27334;BME280;14817;57.104;-2.094;2022-09-17T03:26:02;101144.34;;;7.61;79.39
27334;BME280;14817;57.104;-2.094;2022-09-17T03:28:29;101143.13;;;7.65;78.79
27334;BME280;14817;57.104;-2.094;2022-09-17T03:30:56;101150.41;;;7.63;78.91
27334;BME280;14817;57.104;-2.094;2022-09-17T03:33:23;101141.41;;;7.64;78.91
27334;BME280;14817;57.104;-2.094;2022-09-17T03:35:49;101140.56;;;7.63;79.59
27334;BME280;14817;57.104;-2.094;2022-09-17T03:38:16;101134.41;;;7.63;79.50
27334;BME280;14817;57.104;-2.094;2022-09-17T03:40:43;101138.38;;;7.57;79.22
27334;BME280;14817;57.104;-2.094;2022-09-17T03:43:10;101140.91;;;7.47;80.15
27334;BME280;14817;57.104;-2.094;2022-09-17T03:45:36;101143.06;;;7.42;80.15
27334;BME280;14817;57.104;-2.094;2022-09-17T03:48:03;101140.28;;;7.44;80.45
27334;BME280;14817;57.104;-2.094;2022-09-17T03:50:30;101140.06;;;7.47;79.87
27334;BME280;14817;57.104;-2.094;2022-09-17T03:52:57;101137.97;;;7.39;80.60
27334;BME280;14817;57.104;-2.094;2022-09-17T03:55:23;101142.00;;;7.45;80.97
27334;BME280;14817;57.104;-2.094;2022-09-17T03:57:50;101136.63;;;7.33;81.67
27334;BME280;14817;57.104;-2.094;2022-09-17T04:00:17;101146.91;;;7.38;81.18
27334;BME280;14817;57.104;-2.094;2022-09-17T04:02:43;101137.13;;;7.39;81.41
27334;BME280;14817;57.104;-2.094;2022-09-17T04:05:10;101139.06;;;7.36;80.97
27334;BME280;14817;57.104;-2.094;2022-09-17T04:07:39;101139.81;;;7.39;81.25
27334;BME280;14817;57.104;-2.094;2022-09-17T04:10:07;101136.69;;;7.45;81.30
27334;BME280;14817;57.104;-2.094;2022-09-17T04:12:34;101138.34;;;7.46;80.36
27334;BME280;14817;57.104;-2.094;2022-09-17T04:15:01;101137.97;;;7.39;81.41
27334;BME280;14817;57.104;-2.094;2022-09-17T04:17:27;101132.41;;;7.42;81.28
27334;BME280;14817;57.104;-2.094;2022-09-17T04:19:54;101136.50;;;7.35;81.18
27334;BME280;14817;57.104;-2.094;2022-09-17T04:22:21;101141.59;;;7.38;81.67
27334;BME280;14817;57.104;-2.094;2022-09-17T04:24:48;101124.66;;;7.39;81.72
27334;BME280;14817;57.104;-2.094;2022-09-17T04:27:15;101121.25;;;7.37;81.35
27334;BME280;14817;57.104;-2.094;2022-09-17T04:29:42;101128.28;;;7.38;81.08
27334;BME280;14817;57.104;-2.094;2022-09-17T04:32:09;101118.47;;;7.39;80.97
27334;BME280;14817;57.104;-2.094;2022-09-17T04:34:35;101125.38;;;7.41;81.81
27334;BME280;14817;57.104;-2.094;2022-09-17T04:37:02;101114.47;;;7.44;81.38
27334;BME280;14817;57.104;-2.094;2022-09-17T04:39:29;101112.81;;;7.43;80.89
27334;BME280;14817;57.104;-2.094;2022-09-17T04:41:56;101115.19;;;7.35;81.54
27334;BME280;14817;57.104;-2.094;2022-09-17T04:44:22;101115.19;;;7.35;81.10
27334;BME280;14817;57.104;-2.094;2022-09-17T04:46:49;101116.63;;;7.28;80.89
27334;BME280;14817;57.104;-2.094;2022-09-17T04:49:16;101117.69;;;7.25;81.97
27334;BME280;14817;57.104;-2.094;2022-09-17T04:51:43;101118.31;;;7.29;81.38
27334;BME280;14817;57.104;-2.094;2022-09-17T04:54:09;101120.25;;;7.27;81.99
27334;BME280;14817;57.104;-2.094;2022-09-17T04:56:36;101118.78;;;7.23;81.60
27334;BME280;14817;57.104;-2.094;2022-09-17T04:59:03;101114.91;;;7.15;82.38
27334;BME280;14817;57.104;-2.094;2022-09-17T05:01:30;101112.72;;;7.21;82.07
27334;BME280;14817;57.104;-2.094;2022-09-17T05:03:56;101105.25;;;7.26;81.52
27334;BME280;14817;57.104;-2.094;2022-09-17T05:06:23;101115.91;;;7.26;81.96
27334;BME280;14817;57.104;-2.094;2022-09-17T05:08:50;101117.69;;;7.25;82.65
27334;BME280;14817;57.104;-2.094;2022-09-17T05:11:17;101117.22;;;7.20;82.23
27334;BME280;14817;57.104;-2.094;2022-09-17T05:13:44;101103.78;;;7.22;82.16
27334;BME280;14817;57.104;-2.094;2022-09-17T05:16:10;101110.53;;;7.14;82.45
27334;BME280;14817;57.104;-2.094;2022-09-17T05:18:37;101112.13;;;7.17;82.41
27334;BME280;14817;57.104;-2.094;2022-09-17T05:21:04;101113.06;;;7.16;82.47
27334;BME280;14817;57.104;-2.094;2022-09-17T05:23:31;101104.25;;;7.15;82.83
27334;BME280;14817;57.104;-2.094;2022-09-17T05:25:58;101104.13;;;7.17;83.29
27334;BME280;14817;57.104;-2.094;2022-09-17T05:28:26;101109.09;;;7.22;83.39
27334;BME280;14817;57.104;-2.094;2022-09-17T05:30:53;101118.69;;;7.24;83.40
27334;BME280;14817;57.104;-2.094;2022-09-17T05:33:20;101113.34;;;7.24;83.23
27334;BME280;14817;57.104;-2.094;2022-09-17T05:35:47;101114.72;;;7.30;82.82
27334;BME280;14817;57.104;-2.094;2022-09-17T05:38:14;101109.63;;;7.38;82.54
27334;BME280;14817;57.104;-2.094;2022-09-17T05:40:41;101097.28;;;7.37;82.83
27334;BME280;14817;57.104;-2.094;2022-09-17T05:43:08;101099.84;;;7.39;82.12
27334;BME280;14817;57.104;-2.094;2022-09-17T05:45:35;101098.97;;;7.38;82.74
27334;BME280;14817;57.104;-2.094;2022-09-17T05:48:05;101103.59;;;7.47;82.08
27334;BME280;14817;57.104;-2.094;2022-09-17T05:50:32;101100.59;;;7.52;82.06
27334;BME280;14817;57.104;-2.094;2022-09-17T05:53:04;101098.75;;;7.52;81.85
27334;BME280;14817;57.104;-2.094;2022-09-17T05:55:32;101102.88;;;7.56;81.61
27334;BME280;14817;57.104;-2.094;2022-09-17T05:58:08;101108.22;;;7.68;81.63
27334;BME280;14817;57.104;-2.094;2022-09-17T06:00:34;101104.88;;;7.77;81.69
27334;BME280;14817;57.104;-2.094;2022-09-17T06:03:01;101108.00;;;7.82;81.30
27334;BME280;14817;57.104;-2.094;2022-09-17T06:05:28;101099.63;;;7.87;80.34
27334;BME280;14817;57.104;-2.094;2022-09-17T06:07:55;101097.09;;;7.96;80.05
27334;BME280;14817;57.104;-2.094;2022-09-17T06:10:24;101096.47;;;8.04;79.64
27334;BME280;14817;57.104;-2.094;2022-09-17T06:12:58;101097.34;;;8.16;80.08
27334;BME280;14817;57.104;-2.094;2022-09-17T06:15:26;101103.03;;;8.23;78.60
27334;BME280;14817;57.104;-2.094;2022-09-17T06:17:53;101103.38;;;8.29;78.83
27334;BME280;14817;57.104;-2.094;2022-09-17T06:20:20;101106.06;;;8.29;78.91
27334;BME280;14817;57.104;-2.094;2022-09-17T06:22:47;101106.16;;;8.28;78.76
27334;BME280;14817;57.104;-2.094;2022-09-17T06:25:14;101115.88;;;8.29;79.03
27334;BME280;14817;57.104;-2.094;2022-09-17T06:27:40;101111.38;;;8.29;78.65
27334;BME280;14817;57.104;-2.094;2022-09-17T06:30:07;101114.66;;;8.33;78.23
27334;BME280;14817;57.104;-2.094;2022-09-17T06:32:34;101117.94;;;8.36;78.99
27334;BME280;14817;57.104;-2.094;2022-09-17T06:35:01;101111.16;;;8.44;79.08
27334;BME280;14817;57.104;-2.094;2022-09-17T06:37:29;101119.88;;;8.57;78.82
27334;BME280;14817;57.104;-2.094;2022-09-17T06:39:56;101116.69;;;8.63;78.18
27334;BME280;14817;57.104;-2.094;2022-09-17T06:42:25;101109.06;;;8.58;79.05
27334;BME280;14817;57.104;-2.094;2022-09-17T06:44:52;101117.69;;;8.62;78.13
27334;BME280;14817;57.104;-2.094;2022-09-17T06:47:19;101112.78;;;8.78;78.42
27334;BME280;14817;57.104;-2.094;2022-09-17T06:49:46;101114.81;;;8.86;77.57
27334;BME280;14817;57.104;-2.094;2022-09-17T06:52:12;101120.03;;;8.88;77.86
27334;BME280;14817;57.104;-2.094;2022-09-17T06:54:39;101112.59;;;8.91;77.57
27334;BME280;14817;57.104;-2.094;2022-09-17T06:57:06;101116.59;;;8.97;78.18
27334;BME280;14817;57.104;-2.094;2022-09-17T07:02:03;101118.19;;;9.20;76.91
27334;BME280;14817;57.104;-2.094;2022-09-17T07:04:30;101116.84;;;9.26;76.62
27334;BME280;14817;57.104;-2.094;2022-09-17T07:06:57;101119.13;;;9.31;76.85
27334;BME280;14817;57.104;-2.094;2022-09-17T07:09:24;101113.84;;;9.40;77.02
27334;BME280;14817;57.104;-2.094;2022-09-17T07:11:51;101124.41;;;9.42;77.13
27334;BME280;14817;57.104;-2.094;2022-09-17T07:14:18;101116.72;;;9.49;77.03
27334;BME280;14817;57.104;-2.094;2022-09-17T07:16:46;101112.59;;;9.66;76.53
27334;BME280;14817;57.104;-2.094;2022-09-17T07:19:13;101108.59;;;9.81;75.66
27334;BME280;14817;57.104;-2.094;2022-09-17T07:21:40;101116.81;;;9.89;75.39
27334;BME280;14817;57.104;-2.094;2022-09-17T07:24:07;101108.28;;;10.05;75.51
27334;BME280;14817;57.104;-2.094;2022-09-17T07:26:34;101114.91;;;10.11;74.52
27334;BME280;14817;57.104;-2.094;2022-09-17T07:29:01;101106.34;;;10.17;75.06
27334;BME280;14817;57.104;-2.094;2022-09-17T07:31:27;101107.78;;;10.21;74.35
27334;BME280;14817;57.104;-2.094;2022-09-17T07:33:54;101102.72;;;10.18;74.76
27334;BME280;14817;57.104;-2.094;2022-09-17T07:36:21;101111.44;;;10.20;74.43
27334;BME280;14817;57.104;-2.094;2022-09-17T07:38:48;101102.63;;;10.29;74.38
27334;BME280;14817;57.104;-2.094;2022-09-17T07:41:16;101101.59;;;10.20;74.73
27334;BME280;14817;57.104;-2.094;2022-09-17T07:43:43;101109.06;;;10.27;74.33
27334;BME280;14817;57.104;-2.094;2022-09-17T07:46:15;101106.88;;;10.11;74.65
27334;BME280;14817;57.104;-2.094;2022-09-17T07:48:43;101111.53;;;10.09;74.73
27334;BME280;14817;57.104;-2.094;2022-09-17T07:51:24;101107.28;;;10.37;74.07
27334;BME280;14817;57.104;-2.094;2022-09-17T07:53:56;101119.13;;;12.00;69.71
27334;BME280;14817;57.104;-2.094;2022-09-17T07:56:25;101099.13;;;13.21;64.99
27334;BME280;14817;57.104;-2.094;2022-09-17T07:58:52;101100.84;;;14.01;62.84
27334;BME280;14817;57.104;-2.094;2022-09-17T08:01:19;101095.94;;;14.81;61.61
27334;BME280;14817;57.104;-2.094;2022-09-17T08:03:50;101110.06;;;13.64;62.03
27334;BME280;14817;57.104;-2.094;2022-09-17T08:06:20;101097.59;;;13.01;64.89
27334;BME280;14817;57.104;-2.094;2022-09-17T08:08:47;101079.91;;;14.29;61.17
27334;BME280;14817;57.104;-2.094;2022-09-17T08:11:17;101087.59;;;13.29;63.07
27334;BME280;14817;57.104;-2.094;2022-09-17T08:14:04;101098.34;;;12.57;64.95
27334;BME280;14817;57.104;-2.094;2022-09-17T08:16:31;101089.75;;;12.26;66.34
27334;BME280;14817;57.104;-2.094;2022-09-17T08:18:57;101091.91;;;13.04;64.96
27334;BME280;14817;57.104;-2.094;2022-09-17T08:21:24;101090.47;;;13.80;62.30
27334;BME280;14817;57.104;-2.094;2022-09-17T08:23:51;101085.97;;;13.88;62.88
27334;BME280;14817;57.104;-2.094;2022-09-17T08:26:21;101085.97;;;14.74;59.72
27334;BME280;14817;57.104;-2.094;2022-09-17T08:28:51;101098.34;;;14.50;59.59
27334;BME280;14817;57.104;-2.094;2022-09-17T08:31:21;101094.41;;;14.79;59.47
27334;BME280;14817;57.104;-2.094;2022-09-17T08:33:48;101091.56;;;15.05;58.67
27334;BME280;14817;57.104;-2.094;2022-09-17T08:36:17;101098.81;;;15.13;59.27
27334;BME280;14817;57.104;-2.094;2022-09-17T08:39:09;101110.47;;;13.51;63.18
27334;BME280;14817;57.104;-2.094;2022-09-17T08:44:28;101108.56;;;13.43;64.32
27334;BME280;14817;57.104;-2.094;2022-09-17T08:49:40;101110.66;;;12.96;66.33
27334;BME280;14817;57.104;-2.094;2022-09-17T09:00:30;101114.78;;;12.90;65.98
27334;BME280;14817;57.104;-2.094;2022-09-17T09:06:01;101110.56;;;13.23;65.33
27334;BME280;14817;57.104;-2.094;2022-09-17T09:08:35;101117.03;;;13.48;64.49
27334;BME280;14817;57.104;-2.094;2022-09-17T09:11:12;101100.44;;;14.22;62.93
27334;BME280;14817;57.104;-2.094;2022-09-17T09:13:43;101114.81;;;14.39;61.52
27334;BME280;14817;57.104;-2.094;2022-09-17T09:16:15;101113.59;;;14.76;60.54
27334;BME280;14817;57.104;-2.094;2022-09-17T09:18:44;101105.25;;;15.11;59.27
27334;BME280;14817;57.104;-2.094;2022-09-17T09:21:29;101096.19;;;14.54;60.72
27334;BME280;14817;57.104;-2.094;2022-09-17T09:24:18;101102.34;;;14.97;59.46
27334;BME280;14817;57.104;-2.094;2022-09-17T09:27:18;101117.88;;;15.36;58.47
27334;BME280;14817;57.104;-2.094;2022-09-17T09:29:59;101113.31;;;15.36;58.47
27334;BME280;14817;57.104;-2.094;2022-09-17T09:32:55;101106.41;;;15.09;59.05
27334;BME280;14817;57.104;-2.094;2022-09-17T09:41:18;101107.91;;;15.85;57.14
27334;BME280;14817;57.104;-2.094;2022-09-17T09:43:47;101100.03;;;16.15;56.30
27334;BME280;14817;57.104;-2.094;2022-09-17T09:52:22;101098.94;;;15.85;56.07
27334;BME280;14817;57.104;-2.094;2022-09-17T09:57:48;101113.16;;;15.05;58.54
27334;BME280;14817;57.104;-2.094;2022-09-17T10:00:41;101106.91;;;15.29;57.74
27334;BME280;14817;57.104;-2.094;2022-09-17T10:05:39;101116.22;;;13.82;62.72
27334;BME280;14817;57.104;-2.094;2022-09-17T10:08:17;101128.84;;;13.56;64.70
27334;BME280;14817;57.104;-2.094;2022-09-17T10:11:03;101134.09;;;13.39;66.51
27334;BME280;14817;57.104;-2.094;2022-09-17T10:13:33;101130.81;;;12.82;69.19
27334;BME280;14817;57.104;-2.094;2022-09-17T10:16:23;101137.16;;;12.45;72.58
27334;BME280;14817;57.104;-2.094;2022-09-17T10:21:31;101140.50;;;12.93;74.35
27334;BME280;14817;57.104;-2.094;2022-09-17T10:24:01;101138.91;;;13.18;73.88
27334;BME280;14817;57.104;-2.094;2022-09-17T10:26:31;101133.69;;;13.52;71.37
27334;BME280;14817;57.104;-2.094;2022-09-17T10:31:50;101124.13;;;14.53;68.25
27334;BME280;14817;57.104;-2.094;2022-09-17T10:36:47;101122.59;;;15.50;63.96
27334;BME280;14817;57.104;-2.094;2022-09-17T10:39:29;101130.34;;;14.96;65.05
27334;BME280;14817;57.104;-2.094;2022-09-17T10:41:59;101131.69;;;14.06;68.13
27334;BME280;14817;57.104;-2.094;2022-09-17T10:44:31;101131.00;;;13.52;69.62
27334;BME280;14817;57.104;-2.094;2022-09-17T10:47:13;101126.34;;;13.88;70.13
27334;BME280;14817;57.104;-2.094;2022-09-17T10:50:15;101131.75;;;13.88;70.03
27334;BME280;14817;57.104;-2.094;2022-09-17T10:52:51;101128.41;;;13.95;70.12
27334;BME280;14817;57.104;-2.094;2022-09-17T10:55:32;101119.44;;;13.86;70.34
27334;BME280;14817;57.104;-2.094;2022-09-17T11:03:21;101142.00;;;13.23;72.98
27334;BME280;14817;57.104;-2.094;2022-09-17T11:11:41;101131.06;;;12.71;73.32
27334;BME280;14817;57.104;-2.094;2022-09-17T11:17:11;101118.88;;;13.30;70.99
27334;BME280;14817;57.104;-2.094;2022-09-17T11:22:25;101103.19;;;13.69;68.91
27334;BME280;14817;57.104;-2.094;2022-09-17T11:27:51;101100.59;;;13.86;67.53
27334;BME280;14817;57.104;-2.094;2022-09-17T11:30:22;101097.66;;;14.05;66.21
27334;BME280;14817;57.104;-2.094;2022-09-17T11:35:37;101098.00;;;14.02;66.07
27334;BME280;14817;57.104;-2.094;2022-09-17T11:38:15;101104.72;;;13.98;66.50
27334;BME280;14817;57.104;-2.094;2022-09-17T11:40:57;101110.56;;;13.41;67.99
27334;BME280;14817;57.104;-2.094;2022-09-17T11:43:27;101107.72;;;12.71;70.20
27334;BME280;14817;57.104;-2.094;2022-09-17T11:46:06;101108.47;;;12.63;72.83
27334;BME280;14817;57.104;-2.094;2022-09-17T11:48:43;101101.38;;;12.44;73.60
27334;BME280;14817;57.104;-2.094;2022-09-17T11:51:35;101099.41;;;12.46;74.17
27334;BME280;14817;57.104;-2.094;2022-09-17T11:54:21;101091.44;;;12.73;73.52
27334;BME280;14817;57.104;-2.094;2022-09-17T11:56:53;101101.44;;;12.80;72.12
27334;BME280;14817;57.104;-2.094;2022-09-17T11:59:37;101095.88;;;12.82;72.17
27334;BME280;14817;57.104;-2.094;2022-09-17T12:05:05;101108.41;;;13.09;70.53
27334;BME280;14817;57.104;-2.094;2022-09-17T12:07:53;101099.44;;;13.00;70.96
27334;BME280;14817;57.104;-2.094;2022-09-17T12:15:49;101092.13;;;13.11;71.22
27334;BME280;14817;57.104;-2.094;2022-09-17T12:18:47;101096.53;;;13.30;70.13
27334;BME280;14817;57.104;-2.094;2022-09-17T12:21:44;101098.66;;;13.08;72.25
27334;BME280;14817;57.104;-2.094;2022-09-17T12:24:21;101094.41;;;13.41;70.57
27334;BME280;14817;57.104;-2.094;2022-09-17T12:32:27;101092.25;;;13.45;70.04
27334;BME280;14817;57.104;-2.094;2022-09-17T12:45:25;101114.22;;;12.69;74.83
27334;BME280;14817;57.104;-2.094;2022-09-17T12:50:57;101120.88;;;12.19;76.23
27334;BME280;14817;57.104;-2.094;2022-09-17T12:53:31;101109.66;;;11.96;77.45
27334;BME280;14817;57.104;-2.094;2022-09-17T12:56:01;101100.78;;;12.23;77.47
27334;BME280;14817;57.104;-2.094;2022-09-17T13:16:36;101079.16;;;12.70;74.97
27334;BME280;14817;57.104;-2.094;2022-09-17T13:19:40;101074.16;;;12.75;74.62
27334;BME280;14817;57.104;-2.094;2022-09-17T13:22:17;101076.31;;;12.90;74.41
27334;BME280;14817;57.104;-2.094;2022-09-17T13:24:45;101078.47;;;12.86;74.75
27334;BME280;14817;57.104;-2.094;2022-09-17T13:27:23;101063.41;;;12.93;73.63
27334;BME280;14817;57.104;-2.094;2022-09-17T13:38:00;101046.06;;;12.87;69.28
27334;BME280;14817;57.104;-2.094;2022-09-17T13:43:09;101058.41;;;12.98;67.47
27334;BME280;14817;57.104;-2.094;2022-09-17T13:48:30;101054.53;;;13.37;65.26
27334;BME280;14817;57.104;-2.094;2022-09-17T13:53:36;101060.34;;;13.50;66.59
27334;BME280;14817;57.104;-2.094;2022-09-17T13:56:32;101052.69;;;13.19;67.01
27334;BME280;14817;57.104;-2.094;2022-09-17T13:59:20;101044.94;;;13.16;67.70
27334;BME280;14817;57.104;-2.094;2022-09-17T14:10:23;101048.03;;;13.03;63.95
27334;BME280;14817;57.104;-2.094;2022-09-17T14:21:26;101047.13;;;12.95;65.21
27334;BME280;14817;57.104;-2.094;2022-09-17T14:24:17;101057.94;;;13.03;65.83
27334;BME280;14817;57.104;-2.094;2022-09-17T14:26:57;101044.34;;;13.04;64.83
27334;BME280;14817;57.104;-2.094;2022-09-17T14:32:41;101036.56;;;13.19;64.32
27334;BME280;14817;57.104;-2.094;2022-09-17T14:35:15;101036.88;;;13.16;64.59
27334;BME280;14817;57.104;-2.094;2022-09-17T14:37:51;101036.81;;;13.08;64.49
27334;BME280;14817;57.104;-2.094;2022-09-17T14:40:20;101037.16;;;13.31;63.80
27334;BME280;14817;57.104;-2.094;2022-09-17T14:42:51;101034.81;;;13.54;62.76
27334;BME280;14817;57.104;-2.094;2022-09-17T14:45:22;101040.72;;;13.32;63.24
27334;BME280;14817;57.104;-2.094;2022-09-17T14:48:16;101043.63;;;13.38;63.21
27334;BME280;14817;57.104;-2.094;2022-09-17T14:50:45;101038.53;;;13.35;63.70
27334;BME280;14817;57.104;-2.094;2022-09-17T14:53:17;101051.94;;;13.09;64.00
27334;BME280;14817;57.104;-2.094;2022-09-17T14:55:50;101053.31;;;13.13;64.07
27334;BME280;14817;57.104;-2.094;2022-09-17T14:58:33;101050.09;;;13.10;63.30
27334;BME280;14817;57.104;-2.094;2022-09-17T15:01:01;101056.78;;;13.23;62.82
27334;BME280;14817;57.104;-2.094;2022-09-17T15:03:27;101043.25;;;13.15;62.29
27334;BME280;14817;57.104;-2.094;2022-09-17T15:05:54;101041.44;;;12.98;62.30
27334;BME280;14817;57.104;-2.094;2022-09-17T15:08:23;101041.22;;;12.91;63.38
27334;BME280;14817;57.104;-2.094;2022-09-17T15:13:48;101050.34;;;12.98;62.90
27334;BME280;14817;57.104;-2.094;2022-09-17T15:16:19;101044.03;;;13.07;62.93
27334;BME280;14817;57.104;-2.094;2022-09-17T15:18:50;101045.34;;;13.03;62.88
27334;BME280;14817;57.104;-2.094;2022-09-17T15:21:28;101048.03;;;13.03;62.69
27334;BME280;14817;57.104;-2.094;2022-09-17T15:24:25;101052.97;;;12.90;63.86
27334;BME280;14817;57.104;-2.094;2022-09-17T15:26:57;101043.28;;;12.79;64.27
27334;BME280;14817;57.104;-2.094;2022-09-17T15:29:28;101039.53;;;12.72;63.10
27334;BME280;14817;57.104;-2.094;2022-09-17T15:31:56;101055.25;;;12.67;65.56
27334;BME280;14817;57.104;-2.094;2022-09-17T15:34:23;101042.88;;;12.38;70.16
27334;BME280;14817;57.104;-2.094;2022-09-17T15:37:03;101044.09;;;12.26;70.81
27334;BME280;14817;57.104;-2.094;2022-09-17T15:39:38;101038.53;;;12.10;72.11
27334;BME280;14817;57.104;-2.094;2022-09-17T15:42:16;101033.50;;;11.97;72.87
27334;BME280;14817;57.104;-2.094;2022-09-17T15:44:43;101036.34;;;11.95;73.34
27334;BME280;14817;57.104;-2.094;2022-09-17T15:47:49;101041.28;;;12.00;73.64
27334;BME280;14817;57.104;-2.094;2022-09-17T15:53:23;101037.28;;;12.32;73.08
27334;BME280;14817;57.104;-2.094;2022-09-17T15:56:07;101033.28;;;12.36;73.06
27334;BME280;14817;57.104;-2.094;2022-09-17T16:08:46;101042.44;;;12.61;69.98
27334;BME280;14817;57.104;-2.094;2022-09-17T16:11:14;101045.28;;;12.59;69.96
27334;BME280;14817;57.104;-2.094;2022-09-17T16:13:41;101042.75;;;12.58;69.46
27334;BME280;14817;57.104;-2.094;2022-09-17T16:16:15;101029.31;;;12.40;70.21
27334;BME280;14817;57.104;-2.094;2022-09-17T16:18:43;101033.91;;;12.48;70.41
27334;BME280;14817;57.104;-2.094;2022-09-17T16:21:10;101032.75;;;12.50;70.33
27334;BME280;14817;57.104;-2.094;2022-09-17T16:23:37;101034.38;;;12.61;69.39
27334;BME280;14817;57.104;-2.094;2022-09-17T16:26:04;101027.63;;;12.57;68.41
27334;BME280;14817;57.104;-2.094;2022-09-17T16:28:32;101021.84;;;12.34;69.28
27334;BME280;14817;57.104;-2.094;2022-09-17T16:30:59;101022.06;;;12.22;70.09